SVMI/CCS METAR and TAF weather

Enter ICAO airport designator
Station Type Date Time Source
SVMI METAR 2019/10/15 18:00 UTC NOAA

SVMI 151800Z 34006KT 9999 SCT016 29/22 Q1011 NOSIG


Station Type Date Time Source
SVMI Decoded METAR 2019/10/15 18:00 UTC NOAA

Caracas / Maiquetia Aerop. Intl. Simon Bolivar, Venezuela (SVMI) 10-36N 066-59W 48M
Oct 15, 2019 - 02:00 PM EDT / 2019.10.15 1800 UTC
Wind: from the NNW (340 degrees) at 7 MPH (6 KT):0
Visibility: greater than 7 mile(s):0
Sky conditions: partly cloudy
Temperature: 84 F (29 C)
Dew Point: 71 F (22 C)
Relative Humidity: 65%
Pressure (altimeter): 29.85 in. Hg (1011 hPa)
ob: SVMI 151800Z 34006KT 9999 SCT016 29/22 Q1011 NOSIG
cycle: 18

Station Type Date Time Source
SVMI TAF 2019/10/15 18:03 UTC NOAA

TAF SVMI 151000Z 1518/1618 09005KT 9999 FEW016 TX33/19Z TN24/08Z
BECMG 1518/1523 09005KT SCT016
FM150000 00000KT 9999 FEW016

Example: see airport list